Main page
METAR-TAF:

METAR-TAF

Airports :

Riyadh Air Base

Riyadh, Saudi Arabia

latitude: 24-43N, longitude: 046-44E, elevation: 635 m

METAR: missing

Time: 18:47 (15:47 UTC)

Forecast

The report was made 4 hours and 47 minutes ago, at 11:00 UTC
Forecast valid from 20 at 12 UTC to 21 at 18 UTC
Wind 6 kt from the West with gusts up to 16 kt
Visibility: 7000 m
Few clouds at a height of 4000 ft
Scattered clouds at a height of 8000 ft
Temporary
from 20 at 12 UTC to 20 at 18 UTC
Visibility: 4000 m
Few clouds at a height of 3500 ft, Cumulonimbus.
Blowing dust, thunderstorm, rain
Becoming
from 20 at 18 UTC to 20 at 20 UTC
Wind 12 kt from the South/Southeast

TAF: OERY 201100Z 2012/2118 27006G16KT 7000 FEW040 SCT080 TEMPO 2012/2018 4000 BLDU TSRA FEW035CB BECMG 2018/2020 16012KT

Weather observations and forecasts of more than 4000 airports (METAR and TAF reports).

The available stations are represented by yellow and red dots on the map.

Hover mouse over dot to see the name of the station.

Then click to see weather observations and forecasts.

To change the map : click on the green buttons with a black cross to zoom in, on the green button with a dash to zoom out, or on the green arrows for adjacent maps.


METAR-TAF: